sensor_id;sensor_type;location;lat;lon;timestamp;temperature;humidity
3268;DHT22;1646;52.450;13.326;2024-02-15T00:01:31;10.50;99.90
3268;DHT22;1646;52.450;13.326;2024-02-15T00:06:29;10.50;99.90
3268;DHT22;1646;52.450;13.326;2024-02-15T00:11:28;10.60;99.90
3268;DHT22;1646;52.450;13.326;2024-02-15T00:16:26;10.70;99.90
3268;DHT22;1646;52.450;13.326;2024-02-15T00:21:26;10.70;99.90
3268;DHT22;1646;52.450;13.326;2024-02-15T00:26:24;10.70;99.90
3268;DHT22;1646;52.450;13.326;2024-02-15T00:31:22;10.60;99.90
3268;DHT22;1646;52.450;13.326;2024-02-15T00:36:42;10.70;99.90
3268;DHT22;1646;52.450;13.326;2024-02-15T00:41:40;10.60;99.90
3268;DHT22;1646;52.450;13.326;2024-02-15T00:46:39;10.60;99.90
3268;DHT22;1646;52.450;13.326;2024-02-15T00:51:39;10.60;99.90
3268;DHT22;1646;52.450;13.326;2024-02-15T00:56:38;10.60;99.90
3268;DHT22;1646;52.450;13.326;2024-02-15T01:01:36;10.60;99.90
3268;DHT22;1646;52.450;13.326;2024-02-15T01:06:35;10.60;99.90
3268;DHT22;1646;52.450;13.326;2024-02-15T01:11:34;10.60;99.90
3268;DHT22;1646;52.450;13.326;2024-02-15T01:16:33;10.50;99.90
3268;DHT22;1646;52.450;13.326;2024-02-15T01:21:33;10.50;99.90
3268;DHT22;1646;52.450;13.326;2024-02-15T01:26:31;10.50;99.90
3268;DHT22;1646;52.450;13.326;2024-02-15T01:31:31;10.50;99.90
3268;DHT22;1646;52.450;13.326;2024-02-15T01:36:29;10.50;99.90
3268;DHT22;1646;52.450;13.326;2024-02-15T01:41:27;10.40;99.90
3268;DHT22;1646;52.450;13.326;2024-02-15T01:46:26;10.50;99.90
3268;DHT22;1646;52.450;13.326;2024-02-15T01:51:26;10.50;99.90
3268;DHT22;1646;52.450;13.326;2024-02-15T01:56:25;10.50;99.90
3268;DHT22;1646;52.450;13.326;2024-02-15T02:01:25;10.50;99.90
3268;DHT22;1646;52.450;13.326;2024-02-15T02:06:23;10.50;99.90
3268;DHT22;1646;52.450;13.326;2024-02-15T02:11:23;10.40;99.90
3268;DHT22;1646;52.450;13.326;2024-02-15T02:16:25;10.50;99.90
3268;DHT22;1646;52.450;13.326;2024-02-15T02:21:25;10.60;99.90
3268;DHT22;1646;52.450;13.326;2024-02-15T02:26:25;10.60;99.90
3268;DHT22;1646;52.450;13.326;2024-02-15T02:31:24;10.60;99.90
3268;DHT22;1646;52.450;13.326;2024-02-15T02:36:22;10.80;99.90
3268;DHT22;1646;52.450;13.326;2024-02-15T02:41:25;10.70;99.90
3268;DHT22;1646;52.450;13.326;2024-02-15T02:46:23;10.70;99.90
3268;DHT22;1646;52.450;13.326;2024-02-15T02:51:21;10.80;99.90
3268;DHT22;1646;52.450;13.326;2024-02-15T02:56:20;10.80;99.90
3268;DHT22;1646;52.450;13.326;2024-02-15T03:01:22;10.70;99.90
3268;DHT22;1646;52.450;13.326;2024-02-15T03:06:23;10.70;99.90
3268;DHT22;1646;52.450;13.326;2024-02-15T03:11:22;10.70;99.90
3268;DHT22;1646;52.450;13.326;2024-02-15T03:16:23;10.80;99.90
3268;DHT22;1646;52.450;13.326;2024-02-15T03:21:22;10.80;99.90
3268;DHT22;1646;52.450;13.326;2024-02-15T03:26:29;10.80;99.90
3268;DHT22;1646;52.450;13.326;2024-02-15T03:31:35;10.80;99.90
3268;DHT22;1646;52.450;13.326;2024-02-15T03:36:34;10.70;99.90
3268;DHT22;1646;52.450;13.326;2024-02-15T03:41:32;10.70;99.90
3268;DHT22;1646;52.450;13.326;2024-02-15T03:46:31;10.70;99.90
3268;DHT22;1646;52.450;13.326;2024-02-15T03:51:31;10.70;99.90
3268;DHT22;1646;52.450;13.326;2024-02-15T03:56:29;10.80;99.90
3268;DHT22;1646;52.450;13.326;2024-02-15T04:01:29;10.80;99.90
3268;DHT22;1646;52.450;13.326;2024-02-15T04:06:32;10.80;99.90
3268;DHT22;1646;52.450;13.326;2024-02-15T04:11:31;10.80;99.90
3268;DHT22;1646;52.450;13.326;2024-02-15T04:16:30;10.80;99.90
3268;DHT22;1646;52.450;13.326;2024-02-15T04:21:35;10.80;99.90
3268;DHT22;1646;52.450;13.326;2024-02-15T04:26:33;10.80;99.90
3268;DHT22;1646;52.450;13.326;2024-02-15T04:31:33;10.90;99.90
3268;DHT22;1646;52.450;13.326;2024-02-15T04:36:35;10.90;99.90
3268;DHT22;1646;52.450;13.326;2024-02-15T04:41:34;10.90;99.90
3268;DHT22;1646;52.450;13.326;2024-02-15T04:46:32;10.90;99.90
3268;DHT22;1646;52.450;13.326;2024-02-15T04:51:31;10.90;99.90
3268;DHT22;1646;52.450;13.326;2024-02-15T04:56:31;10.90;99.90
3268;DHT22;1646;52.450;13.326;2024-02-15T05:01:30;10.90;99.90
3268;DHT22;1646;52.450;13.326;2024-02-15T05:06:30;10.90;99.90
3268;DHT22;1646;52.450;13.326;2024-02-15T05:11:30;11.00;99.90
3268;DHT22;1646;52.450;13.326;2024-02-15T05:16:29;10.90;99.90
3268;DHT22;1646;52.450;13.326;2024-02-15T05:21:28;11.00;99.90
3268;DHT22;1646;52.450;13.326;2024-02-15T05:26:27;11.00;99.90
3268;DHT22;1646;52.450;13.326;2024-02-15T05:31:26;11.00;99.90
3268;DHT22;1646;52.450;13.326;2024-02-15T05:36:25;11.00;99.90
3268;DHT22;1646;52.450;13.326;2024-02-15T05:41:23;11.00;99.90
3268;DHT22;1646;52.450;13.326;2024-02-15T05:46:21;11.10;99.90
3268;DHT22;1646;52.450;13.326;2024-02-15T05:51:22;11.00;99.90
3268;DHT22;1646;52.450;13.326;2024-02-15T05:56:20;11.10;99.90
3268;DHT22;1646;52.450;13.326;2024-02-15T06:01:19;11.10;99.90
3268;DHT22;1646;52.450;13.326;2024-02-15T06:06:17;11.10;99.90
3268;DHT22;1646;52.450;13.326;2024-02-15T06:11:20;11.20;99.90
3268;DHT22;1646;52.450;13.326;2024-02-15T06:16:18;11.20;99.90
3268;DHT22;1646;52.450;13.326;2024-02-15T06:21:17;11.10;99.90
3268;DHT22;1646;52.450;13.326;2024-02-15T06:26:16;11.10;99.90
3268;DHT22;1646;52.450;13.326;2024-02-15T06:31:15;11.10;99.90
3268;DHT22;1646;52.450;13.326;2024-02-15T06:36:31;11.20;99.90
3268;DHT22;1646;52.450;13.326;2024-02-15T06:41:47;11.20;99.90
3268;DHT22;1646;52.450;13.326;2024-02-15T06:46:47;11.20;99.90
3268;DHT22;1646;52.450;13.326;2024-02-15T06:51:47;11.30;99.90
3268;DHT22;1646;52.450;13.326;2024-02-15T06:56:46;11.20;99.90
3268;DHT22;1646;52.450;13.326;2024-02-15T07:01:44;11.20;99.90
3268;DHT22;1646;52.450;13.326;2024-02-15T07:06:44;11.20;99.90
3268;DHT22;1646;52.450;13.326;2024-02-15T07:11:45;11.30;99.90
3268;DHT22;1646;52.450;13.326;2024-02-15T07:16:48;11.30;99.90
3268;DHT22;1646;52.450;13.326;2024-02-15T07:21:49;11.30;99.90
3268;DHT22;1646;52.450;13.326;2024-02-15T07:26:48;11.30;99.90
3268;DHT22;1646;52.450;13.326;2024-02-15T07:31:49;11.30;99.90
3268;DHT22;1646;52.450;13.326;2024-02-15T07:36:50;11.40;99.90
3268;DHT22;1646;52.450;13.326;2024-02-15T07:41:48;11.20;99.90
3268;DHT22;1646;52.450;13.326;2024-02-15T07:46:47;11.30;99.90
3268;DHT22;1646;52.450;13.326;2024-02-15T07:51:48;11.40;99.90
3268;DHT22;1646;52.450;13.326;2024-02-15T07:56:50;11.40;99.90
3268;DHT22;1646;52.450;13.326;2024-02-15T08:01:49;11.40;99.90
3268;DHT22;1646;52.450;13.326;2024-02-15T08:06:49;11.40;99.90
3268;DHT22;1646;52.450;13.326;2024-02-15T08:11:49;11.50;99.90
3268;DHT22;1646;52.450;13.326;2024-02-15T08:16:48;11.60;99.90
3268;DHT22;1646;52.450;13.326;2024-02-15T08:21:46;11.70;99.90
3268;DHT22;1646;52.450;13.326;2024-02-15T08:26:49;11.90;99.90
3268;DHT22;1646;52.450;13.326;2024-02-15T08:31:47;11.90;99.90
3268;DHT22;1646;52.450;13.326;2024-02-15T08:36:46;11.90;99.90
3268;DHT22;1646;52.450;13.326;2024-02-15T08:41:46;12.00;99.90
3268;DHT22;1646;52.450;13.326;2024-02-15T08:46:45;12.00;99.90
3268;DHT22;1646;52.450;13.326;2024-02-15T08:51:47;12.00;99.90
3268;DHT22;1646;52.450;13.326;2024-02-15T08:56:45;12.10;99.90
3268;DHT22;1646;52.450;13.326;2024-02-15T09:01:45;12.10;99.90
3268;DHT22;1646;52.450;13.326;2024-02-15T09:06:44;12.10;99.90
3268;DHT22;1646;52.450;13.326;2024-02-15T09:11:42;12.20;99.90
3268;DHT22;1646;52.450;13.326;2024-02-15T09:16:41;12.30;99.90
3268;DHT22;1646;52.450;13.326;2024-02-15T09:21:41;12.30;99.90
3268;DHT22;1646;52.450;13.326;2024-02-15T09:26:39;12.40;99.90
3268;DHT22;1646;52.450;13.326;2024-02-15T09:31:37;12.40;99.90
3268;DHT22;1646;52.450;13.326;2024-02-15T09:36:37;12.40;99.90
3268;DHT22;1646;52.450;13.326;2024-02-15T09:41:37;12.40;99.90
3268;DHT22;1646;52.450;13.326;2024-02-15T09:46:36;12.40;99.90
3268;DHT22;1646;52.450;13.326;2024-02-15T09:51:42;12.50;99.90
3268;DHT22;1646;52.450;13.326;2024-02-15T09:56:43;12.60;99.90
3268;DHT22;1646;52.450;13.326;2024-02-15T10:01:43;12.70;99.90
3268;DHT22;1646;52.450;13.326;2024-02-15T10:06:43;12.80;99.90
3268;DHT22;1646;52.450;13.326;2024-02-15T10:11:53;12.90;99.90
3268;DHT22;1646;52.450;13.326;2024-02-15T10:16:53;12.90;99.90
3268;DHT22;1646;52.450;13.326;2024-02-15T10:21:52;13.10;99.90
3268;DHT22;1646;52.450;13.326;2024-02-15T10:27:00;13.10;99.90
3268;DHT22;1646;52.450;13.326;2024-02-15T10:32:02;13.20;99.90
3268;DHT22;1646;52.450;13.326;2024-02-15T10:37:11;13.20;99.90
3268;DHT22;1646;52.450;13.326;2024-02-15T10:42:11;13.30;99.90
3268;DHT22;1646;52.450;13.326;2024-02-15T10:47:12;13.40;99.90
3268;DHT22;1646;52.450;13.326;2024-02-15T10:52:11;13.50;99.90
3268;DHT22;1646;52.450;13.326;2024-02-15T10:57:15;13.50;99.90
3268;DHT22;1646;52.450;13.326;2024-02-15T11:02:29;13.50;99.90
3268;DHT22;1646;52.450;13.326;2024-02-15T11:07:29;13.60;99.90
3268;DHT22;1646;52.450;13.326;2024-02-15T11:12:30;13.60;99.90
3268;DHT22;1646;52.450;13.326;2024-02-15T11:17:46;13.70;99.90
3268;DHT22;1646;52.450;13.326;2024-02-15T11:22:56;13.60;99.90
3268;DHT22;1646;52.450;13.326;2024-02-15T11:27:56;13.80;99.90
3268;DHT22;1646;52.450;13.326;2024-02-15T11:32:54;13.90;99.90
3268;DHT22;1646;52.450;13.326;2024-02-15T11:37:56;14.00;99.90
3268;DHT22;1646;52.450;13.326;2024-02-15T11:43:01;14.00;99.90
3268;DHT22;1646;52.450;13.326;2024-02-15T11:48:01;14.00;99.90
3268;DHT22;1646;52.450;13.326;2024-02-15T11:53:02;13.90;99.90
3268;DHT22;1646;52.450;13.326;2024-02-15T11:58:05;13.80;99.90
3268;DHT22;1646;52.450;13.326;2024-02-15T12:03:14;13.80;99.90
3268;DHT22;1646;52.450;13.326;2024-02-15T12:08:30;13.80;99.90
3268;DHT22;1646;52.450;13.326;2024-02-15T12:13:51;13.80;99.90
3268;DHT22;1646;52.450;13.326;2024-02-15T12:19:07;13.80;99.90
3268;DHT22;1646;52.450;13.326;2024-02-15T12:24:09;13.80;99.90
3268;DHT22;1646;52.450;13.326;2024-02-15T12:29:10;14.00;99.90
3268;DHT22;1646;52.450;13.326;2024-02-15T12:34:09;13.90;99.90
3268;DHT22;1646;52.450;13.326;2024-02-15T12:39:07;14.10;99.90
3268;DHT22;1646;52.450;13.326;2024-02-15T12:44:16;14.10;99.90
3268;DHT22;1646;52.450;13.326;2024-02-15T12:49:28;14.20;99.90
3268;DHT22;1646;52.450;13.326;2024-02-15T12:54:27;14.20;99.90
3268;DHT22;1646;52.450;13.326;2024-02-15T12:59:27;14.50;99.90
3268;DHT22;1646;52.450;13.326;2024-02-15T13:04:25;14.70;99.90
3268;DHT22;1646;52.450;13.326;2024-02-15T13:09:24;14.80;99.90
3268;DHT22;1646;52.450;13.326;2024-02-15T13:14:22;14.90;99.90
3268;DHT22;1646;52.450;13.326;2024-02-15T13:19:23;15.00;99.90
3268;DHT22;1646;52.450;13.326;2024-02-15T13:24:21;15.10;99.90
3268;DHT22;1646;52.450;13.326;2024-02-15T13:29:23;15.20;99.90
3268;DHT22;1646;52.450;13.326;2024-02-15T13:34:23;15.00;99.90
3268;DHT22;1646;52.450;13.326;2024-02-15T13:39:21;15.00;99.90
3268;DHT22;1646;52.450;13.326;2024-02-15T13:44:20;15.00;99.90
3268;DHT22;1646;52.450;13.326;2024-02-15T13:49:18;15.00;99.90
3268;DHT22;1646;52.450;13.326;2024-02-15T13:54:29;15.00;99.90
3268;DHT22;1646;52.450;13.326;2024-02-15T13:59:28;14.90;99.90
3268;DHT22;1646;52.450;13.326;2024-02-15T14:04:26;14.90;99.90
3268;DHT22;1646;52.450;13.326;2024-02-15T14:09:26;14.90;99.90
3268;DHT22;1646;52.450;13.326;2024-02-15T14:14:26;14.90;99.90
3268;DHT22;1646;52.450;13.326;2024-02-15T14:19:25;15.10;99.90
3268;DHT22;1646;52.450;13.326;2024-02-15T14:24:24;15.00;99.90
3268;DHT22;1646;52.450;13.326;2024-02-15T14:29:23;14.80;99.90
3268;DHT22;1646;52.450;13.326;2024-02-15T14:34:24;14.80;99.90
3268;DHT22;1646;52.450;13.326;2024-02-15T14:39:22;14.80;99.90
3268;DHT22;1646;52.450;13.326;2024-02-15T14:44:22;14.90;99.90
3268;DHT22;1646;52.450;13.326;2024-02-15T14:49:20;14.80;99.90
3268;DHT22;1646;52.450;13.326;2024-02-15T14:54:22;14.70;99.90
3268;DHT22;1646;52.450;13.326;2024-02-15T14:59:20;14.70;99.90
3268;DHT22;1646;52.450;13.326;2024-02-15T15:04:18;14.70;99.90
3268;DHT22;1646;52.450;13.326;2024-02-15T15:09:17;14.60;99.90
3268;DHT22;1646;52.450;13.326;2024-02-15T15:14:36;14.50;99.90
3268;DHT22;1646;52.450;13.326;2024-02-15T15:19:35;14.50;99.90
3268;DHT22;1646;52.450;13.326;2024-02-15T15:24:34;14.50;99.90
3268;DHT22;1646;52.450;13.326;2024-02-15T15:29:33;14.60;99.90
3268;DHT22;1646;52.450;13.326;2024-02-15T15:34:33;14.60;99.90
3268;DHT22;1646;52.450;13.326;2024-02-15T15:39:31;14.50;99.90
3268;DHT22;1646;52.450;13.326;2024-02-15T15:44:33;14.50;99.90
3268;DHT22;1646;52.450;13.326;2024-02-15T15:49:33;14.40;99.90
3268;DHT22;1646;52.450;13.326;2024-02-15T15:54:32;14.40;99.90
3268;DHT22;1646;52.450;13.326;2024-02-15T15:59:30;14.40;99.90
3268;DHT22;1646;52.450;13.326;2024-02-15T16:04:28;14.50;99.90
3268;DHT22;1646;52.450;13.326;2024-02-15T16:09:28;14.40;99.90
3268;DHT22;1646;52.450;13.326;2024-02-15T16:14:27;14.40;99.90
3268;DHT22;1646;52.450;13.326;2024-02-15T16:19:25;14.30;99.90
3268;DHT22;1646;52.450;13.326;2024-02-15T16:24:25;14.20;99.90
3268;DHT22;1646;52.450;13.326;2024-02-15T16:29:25;14.20;99.90
3268;DHT22;1646;52.450;13.326;2024-02-15T16:34:23;14.20;99.90
3268;DHT22;1646;52.450;13.326;2024-02-15T16:39:22;14.20;99.90
3268;DHT22;1646;52.450;13.326;2024-02-15T16:44:21;14.20;99.90
3268;DHT22;1646;52.450;13.326;2024-02-15T16:49:20;14.20;99.90
3268;DHT22;1646;52.450;13.326;2024-02-15T16:54:19;14.10;99.90
3268;DHT22;1646;52.450;13.326;2024-02-15T16:59:17;14.10;99.90
3268;DHT22;1646;52.450;13.326;2024-02-15T17:04:16;14.10;99.90
3268;DHT22;1646;52.450;13.326;2024-02-15T17:09:15;14.10;99.90
3268;DHT22;1646;52.450;13.326;2024-02-15T17:14:14;14.00;99.90
3268;DHT22;1646;52.450;13.326;2024-02-15T17:19:12;14.00;99.90
3268;DHT22;1646;52.450;13.326;2024-02-15T17:24:11;14.00;99.90
3268;DHT22;1646;52.450;13.326;2024-02-15T17:29:11;14.00;99.90
3268;DHT22;1646;52.450;13.326;2024-02-15T17:34:10;14.00;99.90
3268;DHT22;1646;52.450;13.326;2024-02-15T17:39:09;13.90;99.90
3268;DHT22;1646;52.450;13.326;2024-02-15T17:44:13;13.90;99.90
3268;DHT22;1646;52.450;13.326;2024-02-15T17:49:11;14.00;99.90
3268;DHT22;1646;52.450;13.326;2024-02-15T17:54:10;13.90;99.90
3268;DHT22;1646;52.450;13.326;2024-02-15T17:59:08;13.90;99.90
3268;DHT22;1646;52.450;13.326;2024-02-15T18:04:09;13.90;99.90
3268;DHT22;1646;52.450;13.326;2024-02-15T18:09:07;13.80;99.90
3268;DHT22;1646;52.450;13.326;2024-02-15T18:14:06;13.80;99.90
3268;DHT22;1646;52.450;13.326;2024-02-15T18:19:04;13.70;99.90
3268;DHT22;1646;52.450;13.326;2024-02-15T18:24:05;13.70;99.90
3268;DHT22;1646;52.450;13.326;2024-02-15T18:29:04;13.80;99.90
3268;DHT22;1646;52.450;13.326;2024-02-15T18:34:02;13.80;99.90
3268;DHT22;1646;52.450;13.326;2024-02-15T18:39:05;13.70;99.90
3268;DHT22;1646;52.450;13.326;2024-02-15T18:44:06;13.70;99.90
3268;DHT22;1646;52.450;13.326;2024-02-15T18:49:04;13.70;99.90
3268;DHT22;1646;52.450;13.326;2024-02-15T18:54:14;13.70;99.90
3268;DHT22;1646;52.450;13.326;2024-02-15T18:59:12;13.70;99.90
3268;DHT22;1646;52.450;13.326;2024-02-15T19:04:11;13.60;99.90
3268;DHT22;1646;52.450;13.326;2024-02-15T19:09:09;13.60;99.90
3268;DHT22;1646;52.450;13.326;2024-02-15T19:14:09;13.60;99.90
3268;DHT22;1646;52.450;13.326;2024-02-15T19:19:09;13.50;99.90
3268;DHT22;1646;52.450;13.326;2024-02-15T19:24:09;13.60;99.90
3268;DHT22;1646;52.450;13.326;2024-02-15T19:29:11;13.60;99.90
3268;DHT22;1646;52.450;13.326;2024-02-15T19:34:09;13.60;99.90
3268;DHT22;1646;52.450;13.326;2024-02-15T19:39:08;13.70;99.90
3268;DHT22;1646;52.450;13.326;2024-02-15T19:44:08;13.70;99.90
3268;DHT22;1646;52.450;13.326;2024-02-15T19:49:09;13.70;99.90
3268;DHT22;1646;52.450;13.326;2024-02-15T19:54:08;13.70;99.90
3268;DHT22;1646;52.450;13.326;2024-02-15T19:59:07;13.70;99.90
3268;DHT22;1646;52.450;13.326;2024-02-15T20:04:07;13.70;99.90
3268;DHT22;1646;52.450;13.326;2024-02-15T20:09:06;13.70;99.90
3268;DHT22;1646;52.450;13.326;2024-02-15T20:14:05;13.70;99.90
3268;DHT22;1646;52.450;13.326;2024-02-15T20:19:03;13.70;99.90
3268;DHT22;1646;52.450;13.326;2024-02-15T20:24:04;13.60;99.90
3268;DHT22;1646;52.450;13.326;2024-02-15T20:29:03;13.50;99.90
3268;DHT22;1646;52.450;13.326;2024-02-15T20:34:01;13.50;99.90
3268;DHT22;1646;52.450;13.326;2024-02-15T20:39:01;13.50;99.90
3268;DHT22;1646;52.450;13.326;2024-02-15T20:44:00;13.50;99.90
3268;DHT22;1646;52.450;13.326;2024-02-15T20:48:59;13.50;99.90
3268;DHT22;1646;52.450;13.326;2024-02-15T20:53:57;13.50;99.90
3268;DHT22;1646;52.450;13.326;2024-02-15T20:58:56;13.50;99.90
3268;DHT22;1646;52.450;13.326;2024-02-15T21:03:55;13.60;99.90
3268;DHT22;1646;52.450;13.326;2024-02-15T21:08:54;13.50;99.90
3268;DHT22;1646;52.450;13.326;2024-02-15T21:13:55;13.50;99.90
3268;DHT22;1646;52.450;13.326;2024-02-15T21:18:54;13.60;99.90
3268;DHT22;1646;52.450;13.326;2024-02-15T21:23:53;13.60;99.90
3268;DHT22;1646;52.450;13.326;2024-02-15T21:28:51;13.60;99.90
3268;DHT22;1646;52.450;13.326;2024-02-15T21:33:50;13.60;99.90
3268;DHT22;1646;52.450;13.326;2024-02-15T21:38:51;13.60;99.90
3268;DHT22;1646;52.450;13.326;2024-02-15T21:43:50;13.60;99.90
3268;DHT22;1646;52.450;13.326;2024-02-15T21:48:48;13.50;99.90
3268;DHT22;1646;52.450;13.326;2024-02-15T21:53:51;13.40;99.90
3268;DHT22;1646;52.450;13.326;2024-02-15T21:58:49;13.30;99.90
3268;DHT22;1646;52.450;13.326;2024-02-15T22:03:48;13.20;99.90
3268;DHT22;1646;52.450;13.326;2024-02-15T22:08:48;13.10;99.90
3268;DHT22;1646;52.450;13.326;2024-02-15T22:13:47;13.10;99.90
3268;DHT22;1646;52.450;13.326;2024-02-15T22:18:46;13.00;99.90
3268;DHT22;1646;52.450;13.326;2024-02-15T22:23:45;12.80;99.90
3268;DHT22;1646;52.450;13.326;2024-02-15T22:28:43;12.80;99.90
3268;DHT22;1646;52.450;13.326;2024-02-15T22:33:43;12.70;99.90
3268;DHT22;1646;52.450;13.326;2024-02-15T22:38:41;12.50;99.90
3268;DHT22;1646;52.450;13.326;2024-02-15T22:43:40;12.50;99.90
3268;DHT22;1646;52.450;13.326;2024-02-15T22:48:38;12.50;99.90
3268;DHT22;1646;52.450;13.326;2024-02-15T22:53:39;12.40;99.90
3268;DHT22;1646;52.450;13.326;2024-02-15T22:58:38;12.40;99.90
3268;DHT22;1646;52.450;13.326;2024-02-15T23:03:37;12.30;99.90
3268;DHT22;1646;52.450;13.326;2024-02-15T23:08:36;12.20;99.90
3268;DHT22;1646;52.450;13.326;2024-02-15T23:13:36;12.20;99.90
3268;DHT22;1646;52.450;13.326;2024-02-15T23:18:36;12.10;99.90
3268;DHT22;1646;52.450;13.326;2024-02-15T23:23:35;12.10;99.90
3268;DHT22;1646;52.450;13.326;2024-02-15T23:28:33;12.00;99.90
3268;DHT22;1646;52.450;13.326;2024-02-15T23:33:33;12.00;99.90
3268;DHT22;1646;52.450;13.326;2024-02-15T23:38:31;12.00;99.90
3268;DHT22;1646;52.450;13.326;2024-02-15T23:43:47;11.90;99.90
3268;DHT22;1646;52.450;13.326;2024-02-15T23:48:47;12.00;99.90
3268;DHT22;1646;52.450;13.326;2024-02-15T23:53:46;12.00;99.90
3268;DHT22;1646;52.450;13.326;2024-02-15T23:58:45;11.90;99.90
